sensor_id;sensor_type;location;lat;lon;timestamp;P1;durP1;ratioP1;P2;durP2;ratioP2
20042;SDS011;10182;52.896;6.496;2023-01-05T00:02:24;28.50;;;5.27;;
20042;SDS011;10182;52.896;6.496;2023-01-05T00:07:25;23.73;;;5.37;;
20042;SDS011;10182;52.896;6.496;2023-01-05T00:12:28;24.67;;;5.47;;
20042;SDS011;10182;52.896;6.496;2023-01-05T00:17:47;24.63;;;5.17;;
20042;SDS011;10182;52.896;6.496;2023-01-05T00:23:07;25.60;;;5.67;;
20042;SDS011;10182;52.896;6.496;2023-01-05T00:28:10;23.27;;;5.07;;
20042;SDS011;10182;52.896;6.496;2023-01-05T00:33:13;21.37;;;5.10;;
20042;SDS011;10182;52.896;6.496;2023-01-05T00:38:16;19.47;;;5.50;;
20042;SDS011;10182;52.896;6.496;2023-01-05T00:43:19;27.37;;;5.97;;
20042;SDS011;10182;52.896;6.496;2023-01-05T00:48:20;23.17;;;5.37;;
20042;SDS011;10182;52.896;6.496;2023-01-05T00:53:22;23.53;;;5.10;;
20042;SDS011;10182;52.896;6.496;2023-01-05T00:58:25;24.10;;;5.83;;
20042;SDS011;10182;52.896;6.496;2023-01-05T01:03:27;26.37;;;5.10;;
20042;SDS011;10182;52.896;6.496;2023-01-05T01:08:28;18.30;;;4.83;;
20042;SDS011;10182;52.896;6.496;2023-01-05T01:13:32;23.87;;;5.33;;
20042;SDS011;10182;52.896;6.496;2023-01-05T01:18:34;20.67;;;5.20;;
20042;SDS011;10182;52.896;6.496;2023-01-05T01:23:36;20.87;;;7.03;;
20042;SDS011;10182;52.896;6.496;2023-01-05T01:28:39;22.70;;;5.70;;
20042;SDS011;10182;52.896;6.496;2023-01-05T01:33:41;20.77;;;5.47;;
20042;SDS011;10182;52.896;6.496;2023-01-05T01:38:42;21.87;;;5.17;;
20042;SDS011;10182;52.896;6.496;2023-01-05T01:43:47;24.37;;;5.00;;
20042;SDS011;10182;52.896;6.496;2023-01-05T01:48:50;24.83;;;5.13;;
20042;SDS011;10182;52.896;6.496;2023-01-05T01:53:56;21.77;;;4.60;;
20042;SDS011;10182;52.896;6.496;2023-01-05T01:59:01;23.93;;;4.50;;
20042;SDS011;10182;52.896;6.496;2023-01-05T02:04:03;20.63;;;4.93;;
20042;SDS011;10182;52.896;6.496;2023-01-05T02:09:06;26.13;;;5.13;;
20042;SDS011;10182;52.896;6.496;2023-01-05T02:14:16;24.73;;;5.00;;
20042;SDS011;10182;52.896;6.496;2023-01-05T02:19:35;20.73;;;5.43;;
20042;SDS011;10182;52.896;6.496;2023-01-05T02:25:11;22.07;;;5.00;;
20042;SDS011;10182;52.896;6.496;2023-01-05T02:36:01;16.17;;;4.80;;
20042;SDS011;10182;52.896;6.496;2023-01-05T02:41:09;20.37;;;4.77;;
20042;SDS011;10182;52.896;6.496;2023-01-05T02:46:19;19.33;;;4.40;;
20042;SDS011;10182;52.896;6.496;2023-01-05T02:51:21;24.63;;;5.60;;
20042;SDS011;10182;52.896;6.496;2023-01-05T02:56:29;19.90;;;5.20;;
20042;SDS011;10182;52.896;6.496;2023-01-05T03:01:39;23.67;;;5.43;;
20042;SDS011;10182;52.896;6.496;2023-01-05T03:06:45;23.20;;;4.93;;
20042;SDS011;10182;52.896;6.496;2023-01-05T03:11:56;27.03;;;5.97;;
20042;SDS011;10182;52.896;6.496;2023-01-05T03:17:21;24.83;;;5.30;;
20042;SDS011;10182;52.896;6.496;2023-01-05T03:22:27;19.83;;;4.93;;
20042;SDS011;10182;52.896;6.496;2023-01-05T03:27:48;25.87;;;5.20;;
20042;SDS011;10182;52.896;6.496;2023-01-05T03:33:10;21.53;;;5.13;;
20042;SDS011;10182;52.896;6.496;2023-01-05T03:38:37;27.07;;;5.23;;
20042;SDS011;10182;52.896;6.496;2023-01-05T03:43:43;24.00;;;5.23;;
20042;SDS011;10182;52.896;6.496;2023-01-05T03:48:48;26.13;;;5.63;;
20042;SDS011;10182;52.896;6.496;2023-01-05T03:53:50;26.93;;;5.23;;
20042;SDS011;10182;52.896;6.496;2023-01-05T03:58:52;31.57;;;5.67;;
20042;SDS011;10182;52.896;6.496;2023-01-05T04:03:55;25.43;;;5.43;;
20042;SDS011;10182;52.896;6.496;2023-01-05T04:08:57;30.83;;;5.93;;
20042;SDS011;10182;52.896;6.496;2023-01-05T04:13:58;28.90;;;6.53;;
20042;SDS011;10182;52.896;6.496;2023-01-05T04:19:01;22.17;;;4.97;;
20042;SDS011;10182;52.896;6.496;2023-01-05T04:24:03;26.23;;;6.90;;
20042;SDS011;10182;52.896;6.496;2023-01-05T04:29:05;24.43;;;6.03;;
20042;SDS011;10182;52.896;6.496;2023-01-05T04:34:11;21.43;;;5.93;;
20042;SDS011;10182;52.896;6.496;2023-01-05T04:39:12;23.77;;;5.37;;
20042;SDS011;10182;52.896;6.496;2023-01-05T04:44:14;23.07;;;5.30;;
20042;SDS011;10182;52.896;6.496;2023-01-05T04:49:17;21.50;;;4.80;;
20042;SDS011;10182;52.896;6.496;2023-01-05T04:54:19;27.23;;;6.07;;
20042;SDS011;10182;52.896;6.496;2023-01-05T04:59:21;29.63;;;5.30;;
20042;SDS011;10182;52.896;6.496;2023-01-05T05:04:24;17.70;;;5.00;;
20042;SDS011;10182;52.896;6.496;2023-01-05T05:09:26;22.77;;;4.87;;
20042;SDS011;10182;52.896;6.496;2023-01-05T05:14:27;22.75;;;5.20;;
20042;SDS011;10182;52.896;6.496;2023-01-05T05:19:30;28.17;;;5.77;;
20042;SDS011;10182;52.896;6.496;2023-01-05T05:24:32;21.23;;;5.47;;
20042;SDS011;10182;52.896;6.496;2023-01-05T05:29:34;30.13;;;5.17;;
20042;SDS011;10182;52.896;6.496;2023-01-05T05:34:37;29.40;;;5.93;;
20042;SDS011;10182;52.896;6.496;2023-01-05T05:39:39;21.40;;;5.77;;
20042;SDS011;10182;52.896;6.496;2023-01-05T05:44:40;23.93;;;5.70;;
20042;SDS011;10182;52.896;6.496;2023-01-05T05:49:43;26.73;;;5.30;;
20042;SDS011;10182;52.896;6.496;2023-01-05T05:54:45;24.67;;;4.80;;
20042;SDS011;10182;52.896;6.496;2023-01-05T05:59:47;22.17;;;5.27;;
20042;SDS011;10182;52.896;6.496;2023-01-05T06:04:50;15.43;;;5.03;;
20042;SDS011;10182;52.896;6.496;2023-01-05T06:09:51;16.40;;;4.77;;
20042;SDS011;10182;52.896;6.496;2023-01-05T06:14:53;27.47;;;5.67;;
20042;SDS011;10182;52.896;6.496;2023-01-05T06:19:56;25.50;;;5.07;;
20042;SDS011;10182;52.896;6.496;2023-01-05T06:24:58;28.50;;;4.87;;
20042;SDS011;10182;52.896;6.496;2023-01-05T06:29:59;20.77;;;4.73;;
20042;SDS011;10182;52.896;6.496;2023-01-05T06:35:03;18.87;;;4.90;;
20042;SDS011;10182;52.896;6.496;2023-01-05T06:40:05;19.90;;;5.97;;
20042;SDS011;10182;52.896;6.496;2023-01-05T06:45:09;20.87;;;4.70;;
20042;SDS011;10182;52.896;6.496;2023-01-05T06:50:14;19.30;;;4.93;;
20042;SDS011;10182;52.896;6.496;2023-01-05T06:55:16;25.03;;;5.60;;
20042;SDS011;10182;52.896;6.496;2023-01-05T07:00:18;29.07;;;6.00;;
20042;SDS011;10182;52.896;6.496;2023-01-05T07:05:21;24.43;;;5.50;;
20042;SDS011;10182;52.896;6.496;2023-01-05T07:10:23;22.03;;;5.00;;
20042;SDS011;10182;52.896;6.496;2023-01-05T07:15:25;18.87;;;4.33;;
20042;SDS011;10182;52.896;6.496;2023-01-05T07:20:28;20.77;;;5.17;;
20042;SDS011;10182;52.896;6.496;2023-01-05T07:25:30;19.50;;;4.30;;
20042;SDS011;10182;52.896;6.496;2023-01-05T07:30:32;23.37;;;4.87;;
20042;SDS011;10182;52.896;6.496;2023-01-05T07:35:35;22.20;;;4.70;;
20042;SDS011;10182;52.896;6.496;2023-01-05T07:40:37;19.87;;;4.43;;
20042;SDS011;10182;52.896;6.496;2023-01-05T07:45:38;21.20;;;4.53;;
20042;SDS011;10182;52.896;6.496;2023-01-05T07:50:41;20.47;;;4.63;;
20042;SDS011;10182;52.896;6.496;2023-01-05T07:55:43;22.70;;;4.77;;
20042;SDS011;10182;52.896;6.496;2023-01-05T08:00:54;19.07;;;4.23;;
20042;SDS011;10182;52.896;6.496;2023-01-05T08:05:58;19.17;;;4.67;;
20042;SDS011;10182;52.896;6.496;2023-01-05T08:11:04;20.30;;;4.17;;
20042;SDS011;10182;52.896;6.496;2023-01-05T08:16:07;21.23;;;5.00;;
20042;SDS011;10182;52.896;6.496;2023-01-05T08:21:10;16.50;;;4.27;;
20042;SDS011;10182;52.896;6.496;2023-01-05T08:26:12;22.30;;;4.50;;
20042;SDS011;10182;52.896;6.496;2023-01-05T08:31:16;22.60;;;4.90;;
20042;SDS011;10182;52.896;6.496;2023-01-05T08:36:20;25.17;;;5.37;;
20042;SDS011;10182;52.896;6.496;2023-01-05T08:41:22;22.63;;;5.10;;
20042;SDS011;10182;52.896;6.496;2023-01-05T08:46:25;25.57;;;4.93;;
20042;SDS011;10182;52.896;6.496;2023-01-05T08:51:30;19.63;;;5.63;;
20042;SDS011;10182;52.896;6.496;2023-01-05T08:56:33;22.83;;;4.80;;
20042;SDS011;10182;52.896;6.496;2023-01-05T09:01:34;14.60;;;3.93;;
20042;SDS011;10182;52.896;6.496;2023-01-05T09:06:38;18.90;;;4.60;;
20042;SDS011;10182;52.896;6.496;2023-01-05T09:11:40;21.70;;;4.37;;
20042;SDS011;10182;52.896;6.496;2023-01-05T09:16:42;23.70;;;5.53;;
20042;SDS011;10182;52.896;6.496;2023-01-05T09:21:45;21.80;;;4.97;;
20042;SDS011;10182;52.896;6.496;2023-01-05T09:26:46;21.20;;;5.37;;
20042;SDS011;10182;52.896;6.496;2023-01-05T09:31:50;26.60;;;5.70;;
20042;SDS011;10182;52.896;6.496;2023-01-05T09:36:53;14.07;;;4.33;;
20042;SDS011;10182;52.896;6.496;2023-01-05T09:41:55;29.30;;;6.47;;
20042;SDS011;10182;52.896;6.496;2023-01-05T09:47:02;19.87;;;5.30;;
20042;SDS011;10182;52.896;6.496;2023-01-05T09:52:08;21.20;;;4.97;;
20042;SDS011;10182;52.896;6.496;2023-01-05T09:57:13;20.30;;;5.00;;
20042;SDS011;10182;52.896;6.496;2023-01-05T10:02:19;16.47;;;4.27;;
20042;SDS011;10182;52.896;6.496;2023-01-05T10:07:41;17.97;;;4.20;;
20042;SDS011;10182;52.896;6.496;2023-01-05T10:12:45;20.50;;;4.63;;
20042;SDS011;10182;52.896;6.496;2023-01-05T10:18:10;19.17;;;4.10;;
20042;SDS011;10182;52.896;6.496;2023-01-05T10:23:16;17.27;;;4.07;;
20042;SDS011;10182;52.896;6.496;2023-01-05T10:28:33;21.43;;;4.17;;
20042;SDS011;10182;52.896;6.496;2023-01-05T10:33:45;18.07;;;4.90;;
20042;SDS011;10182;52.896;6.496;2023-01-05T10:38:52;18.20;;;4.80;;
20042;SDS011;10182;52.896;6.496;2023-01-05T10:44:08;17.83;;;4.97;;
20042;SDS011;10182;52.896;6.496;2023-01-05T10:49:35;14.53;;;3.60;;
20042;SDS011;10182;52.896;6.496;2023-01-05T10:54:40;16.93;;;3.80;;
20042;SDS011;10182;52.896;6.496;2023-01-05T10:59:53;17.67;;;3.90;;
20042;SDS011;10182;52.896;6.496;2023-01-05T11:04:57;13.27;;;3.90;;
20042;SDS011;10182;52.896;6.496;2023-01-05T11:10:14;11.77;;;3.77;;
20042;SDS011;10182;52.896;6.496;2023-01-05T11:15:21;17.60;;;4.10;;
20042;SDS011;10182;52.896;6.496;2023-01-05T11:20:23;20.00;;;4.10;;
20042;SDS011;10182;52.896;6.496;2023-01-05T11:25:30;14.27;;;4.20;;
20042;SDS011;10182;52.896;6.496;2023-01-05T11:30:33;21.93;;;4.30;;
20042;SDS011;10182;52.896;6.496;2023-01-05T11:35:36;19.07;;;4.60;;
20042;SDS011;10182;52.896;6.496;2023-01-05T11:40:39;21.60;;;4.87;;
20042;SDS011;10182;52.896;6.496;2023-01-05T11:45:44;13.40;;;3.87;;
20042;SDS011;10182;52.896;6.496;2023-01-05T11:50:49;19.63;;;4.27;;
20042;SDS011;10182;52.896;6.496;2023-01-05T11:55:59;17.40;;;3.73;;
20042;SDS011;10182;52.896;6.496;2023-01-05T12:06:55;22.60;;;4.77;;
20042;SDS011;10182;52.896;6.496;2023-01-05T12:12:13;10.53;;;3.23;;
20042;SDS011;10182;52.896;6.496;2023-01-05T12:17:27;15.00;;;3.90;;
20042;SDS011;10182;52.896;6.496;2023-01-05T12:22:42;20.73;;;4.07;;
20042;SDS011;10182;52.896;6.496;2023-01-05T12:28:01;16.73;;;4.33;;
20042;SDS011;10182;52.896;6.496;2023-01-05T12:33:21;17.53;;;5.13;;
20042;SDS011;10182;52.896;6.496;2023-01-05T12:38:35;18.83;;;4.33;;
20042;SDS011;10182;52.896;6.496;2023-01-05T12:43:44;19.60;;;4.30;;
20042;SDS011;10182;52.896;6.496;2023-01-05T12:48:58;16.60;;;4.60;;
20042;SDS011;10182;52.896;6.496;2023-01-05T12:54:04;21.67;;;5.10;;
20042;SDS011;10182;52.896;6.496;2023-01-05T12:59:13;26.87;;;7.40;;
20042;SDS011;10182;52.896;6.496;2023-01-05T13:04:26;28.67;;;7.80;;
20042;SDS011;10182;52.896;6.496;2023-01-05T13:09:38;19.40;;;5.47;;
20042;SDS011;10182;52.896;6.496;2023-01-05T13:14:45;24.43;;;6.20;;
20042;SDS011;10182;52.896;6.496;2023-01-05T13:20:01;26.13;;;5.20;;
20042;SDS011;10182;52.896;6.496;2023-01-05T13:25:07;21.10;;;4.60;;
20042;SDS011;10182;52.896;6.496;2023-01-05T13:30:20;18.37;;;4.67;;
20042;SDS011;10182;52.896;6.496;2023-01-05T13:35:38;26.93;;;5.87;;
20042;SDS011;10182;52.896;6.496;2023-01-05T13:40:56;23.27;;;5.17;;
20042;SDS011;10182;52.896;6.496;2023-01-05T13:46:23;23.50;;;5.67;;
20042;SDS011;10182;52.896;6.496;2023-01-05T13:57:01;23.67;;;6.20;;
20042;SDS011;10182;52.896;6.496;2023-01-05T14:02:22;18.80;;;5.00;;
20042;SDS011;10182;52.896;6.496;2023-01-05T14:07:27;25.87;;;5.73;;
20042;SDS011;10182;52.896;6.496;2023-01-05T14:17:55;25.03;;;5.37;;
20042;SDS011;10182;52.896;6.496;2023-01-05T14:22:58;21.03;;;5.50;;
20042;SDS011;10182;52.896;6.496;2023-01-05T14:28:16;21.67;;;5.53;;
20042;SDS011;10182;52.896;6.496;2023-01-05T14:33:24;23.30;;;5.30;;
20042;SDS011;10182;52.896;6.496;2023-01-05T14:38:26;25.87;;;5.50;;
20042;SDS011;10182;52.896;6.496;2023-01-05T14:43:29;22.93;;;5.53;;
20042;SDS011;10182;52.896;6.496;2023-01-05T14:48:34;18.30;;;5.63;;
20042;SDS011;10182;52.896;6.496;2023-01-05T14:53:39;35.10;;;7.03;;
20042;SDS011;10182;52.896;6.496;2023-01-05T14:58:48;32.63;;;6.57;;
20042;SDS011;10182;52.896;6.496;2023-01-05T15:04:06;25.60;;;6.73;;
20042;SDS011;10182;52.896;6.496;2023-01-05T15:09:22;21.80;;;6.37;;
20042;SDS011;10182;52.896;6.496;2023-01-05T15:14:48;23.10;;;6.07;;
20042;SDS011;10182;52.896;6.496;2023-01-05T15:20:08;24.57;;;6.27;;
20042;SDS011;10182;52.896;6.496;2023-01-05T15:25:39;24.87;;;5.67;;
20042;SDS011;10182;52.896;6.496;2023-01-05T15:36:30;26.97;;;6.00;;
20042;SDS011;10182;52.896;6.496;2023-01-05T15:41:37;27.43;;;6.90;;
20042;SDS011;10182;52.896;6.496;2023-01-05T15:46:39;29.77;;;7.37;;
20042;SDS011;10182;52.896;6.496;2023-01-05T15:51:49;22.07;;;5.57;;
20042;SDS011;10182;52.896;6.496;2023-01-05T15:56:53;27.10;;;6.47;;
20042;SDS011;10182;52.896;6.496;2023-01-05T16:01:55;30.87;;;7.90;;
20042;SDS011;10182;52.896;6.496;2023-01-05T16:06:59;37.17;;;7.87;;
20042;SDS011;10182;52.896;6.496;2023-01-05T16:12:04;35.97;;;9.77;;
20042;SDS011;10182;52.896;6.496;2023-01-05T16:17:10;30.70;;;8.33;;
20042;SDS011;10182;52.896;6.496;2023-01-05T16:22:16;35.10;;;8.70;;
20042;SDS011;10182;52.896;6.496;2023-01-05T16:27:21;30.03;;;8.53;;
20042;SDS011;10182;52.896;6.496;2023-01-05T16:32:27;37.50;;;8.40;;
20042;SDS011;10182;52.896;6.496;2023-01-05T16:37:33;27.23;;;8.17;;
20042;SDS011;10182;52.896;6.496;2023-01-05T16:42:35;30.20;;;8.77;;
20042;SDS011;10182;52.896;6.496;2023-01-05T16:47:46;48.63;;;23.90;;
20042;SDS011;10182;52.896;6.496;2023-01-05T16:52:51;37.90;;;16.27;;
20042;SDS011;10182;52.896;6.496;2023-01-05T16:57:54;23.40;;;8.30;;
20042;SDS011;10182;52.896;6.496;2023-01-05T17:02:56;32.83;;;10.07;;
20042;SDS011;10182;52.896;6.496;2023-01-05T17:08:03;32.50;;;9.43;;
20042;SDS011;10182;52.896;6.496;2023-01-05T17:13:09;20.13;;;8.10;;
20042;SDS011;10182;52.896;6.496;2023-01-05T17:18:14;29.80;;;8.43;;
20042;SDS011;10182;52.896;6.496;2023-01-05T17:23:20;30.27;;;7.50;;
20042;SDS011;10182;52.896;6.496;2023-01-05T17:28:24;33.57;;;7.60;;
20042;SDS011;10182;52.896;6.496;2023-01-05T17:33:25;26.43;;;7.70;;
20042;SDS011;10182;52.896;6.496;2023-01-05T17:38:29;31.67;;;9.13;;
20042;SDS011;10182;52.896;6.496;2023-01-05T17:43:30;39.30;;;12.23;;
20042;SDS011;10182;52.896;6.496;2023-01-05T17:48:32;33.63;;;11.23;;
20042;SDS011;10182;52.896;6.496;2023-01-05T17:53:35;29.27;;;8.93;;
20042;SDS011;10182;52.896;6.496;2023-01-05T17:58:37;30.07;;;9.57;;
20042;SDS011;10182;52.896;6.496;2023-01-05T18:03:39;40.47;;;9.83;;
20042;SDS011;10182;52.896;6.496;2023-01-05T18:08:42;43.10;;;10.50;;
20042;SDS011;10182;52.896;6.496;2023-01-05T18:13:44;32.30;;;9.00;;
20042;SDS011;10182;52.896;6.496;2023-01-05T18:18:46;29.17;;;9.10;;
20042;SDS011;10182;52.896;6.496;2023-01-05T18:23:49;31.67;;;10.33;;
20042;SDS011;10182;52.896;6.496;2023-01-05T18:28:51;45.63;;;10.13;;
20042;SDS011;10182;52.896;6.496;2023-01-05T18:33:53;33.90;;;9.63;;
20042;SDS011;10182;52.896;6.496;2023-01-05T18:38:56;26.70;;;9.50;;
20042;SDS011;10182;52.896;6.496;2023-01-05T18:43:58;27.10;;;9.80;;
20042;SDS011;10182;52.896;6.496;2023-01-05T18:49:00;24.73;;;11.03;;
20042;SDS011;10182;52.896;6.496;2023-01-05T18:54:03;37.80;;;12.33;;
20042;SDS011;10182;52.896;6.496;2023-01-05T18:59:05;34.13;;;13.00;;
20042;SDS011;10182;52.896;6.496;2023-01-05T19:04:07;35.90;;;13.43;;
20042;SDS011;10182;52.896;6.496;2023-01-05T19:09:12;36.30;;;13.93;;
20042;SDS011;10182;52.896;6.496;2023-01-05T19:14:14;38.80;;;14.17;;
20042;SDS011;10182;52.896;6.496;2023-01-05T19:19:17;38.30;;;14.83;;
20042;SDS011;10182;52.896;6.496;2023-01-05T19:24:21;41.90;;;16.40;;
20042;SDS011;10182;52.896;6.496;2023-01-05T19:29:23;33.63;;;15.10;;
20042;SDS011;10182;52.896;6.496;2023-01-05T19:34:25;45.27;;;22.37;;
20042;SDS011;10182;52.896;6.496;2023-01-05T19:39:28;40.30;;;19.73;;
20042;SDS011;10182;52.896;6.496;2023-01-05T19:44:30;39.30;;;17.83;;
20042;SDS011;10182;52.896;6.496;2023-01-05T19:49:32;36.80;;;17.67;;
20042;SDS011;10182;52.896;6.496;2023-01-05T19:54:35;42.27;;;18.50;;
20042;SDS011;10182;52.896;6.496;2023-01-05T19:59:38;36.33;;;19.10;;
20042;SDS011;10182;52.896;6.496;2023-01-05T20:04:40;38.17;;;20.13;;
20042;SDS011;10182;52.896;6.496;2023-01-05T20:09:47;39.40;;;19.70;;
20042;SDS011;10182;52.896;6.496;2023-01-05T20:14:49;34.07;;;18.97;;
20042;SDS011;10182;52.896;6.496;2023-01-05T20:19:50;37.07;;;20.13;;
20042;SDS011;10182;52.896;6.496;2023-01-05T20:24:53;39.77;;;20.63;;
20042;SDS011;10182;52.896;6.496;2023-01-05T20:29:55;37.70;;;19.40;;
20042;SDS011;10182;52.896;6.496;2023-01-05T20:34:58;31.07;;;17.90;;
20042;SDS011;10182;52.896;6.496;2023-01-05T20:40:01;31.03;;;18.67;;
20042;SDS011;10182;52.896;6.496;2023-01-05T20:45:04;40.67;;;20.37;;
20042;SDS011;10182;52.896;6.496;2023-01-05T20:50:06;38.20;;;19.93;;
20042;SDS011;10182;52.896;6.496;2023-01-05T20:55:10;32.70;;;19.13;;
20042;SDS011;10182;52.896;6.496;2023-01-05T21:00:12;36.93;;;20.93;;
20042;SDS011;10182;52.896;6.496;2023-01-05T21:05:15;35.33;;;20.40;;
20042;SDS011;10182;52.896;6.496;2023-01-05T21:10:18;32.60;;;21.43;;
20042;SDS011;10182;52.896;6.496;2023-01-05T21:15:20;42.30;;;23.97;;
20042;SDS011;10182;52.896;6.496;2023-01-05T21:20:22;37.80;;;23.83;;
20042;SDS011;10182;52.896;6.496;2023-01-05T21:25:27;48.93;;;27.70;;
20042;SDS011;10182;52.896;6.496;2023-01-05T21:30:29;45.17;;;27.70;;
20042;SDS011;10182;52.896;6.496;2023-01-05T21:35:31;44.70;;;27.10;;
20042;SDS011;10182;52.896;6.496;2023-01-05T21:40:34;45.07;;;29.20;;
20042;SDS011;10182;52.896;6.496;2023-01-05T21:45:36;50.80;;;28.63;;
20042;SDS011;10182;52.896;6.496;2023-01-05T21:50:40;47.23;;;29.03;;
20042;SDS011;10182;52.896;6.496;2023-01-05T21:56:03;57.33;;;29.37;;
20042;SDS011;10182;52.896;6.496;2023-01-05T22:01:26;49.27;;;29.57;;
20042;SDS011;10182;52.896;6.496;2023-01-05T22:06:28;49.57;;;28.70;;
20042;SDS011;10182;52.896;6.496;2023-01-05T22:11:31;50.83;;;28.87;;
20042;SDS011;10182;52.896;6.496;2023-01-05T22:16:33;45.60;;;28.27;;
20042;SDS011;10182;52.896;6.496;2023-01-05T22:21:35;47.67;;;27.27;;
20042;SDS011;10182;52.896;6.496;2023-01-05T22:26:39;52.97;;;26.27;;
20042;SDS011;10182;52.896;6.496;2023-01-05T22:31:40;44.47;;;26.27;;
20042;SDS011;10182;52.896;6.496;2023-01-05T22:36:43;42.10;;;24.50;;
20042;SDS011;10182;52.896;6.496;2023-01-05T22:41:47;40.80;;;23.00;;
20042;SDS011;10182;52.896;6.496;2023-01-05T22:46:49;37.07;;;22.80;;
20042;SDS011;10182;52.896;6.496;2023-01-05T22:51:51;38.53;;;21.10;;
20042;SDS011;10182;52.896;6.496;2023-01-05T22:56:54;32.70;;;19.43;;
20042;SDS011;10182;52.896;6.496;2023-01-05T23:01:56;32.70;;;19.13;;
20042;SDS011;10182;52.896;6.496;2023-01-05T23:06:57;31.03;;;18.50;;
20042;SDS011;10182;52.896;6.496;2023-01-05T23:12:00;36.67;;;21.10;;
20042;SDS011;10182;52.896;6.496;2023-01-05T23:17:02;30.90;;;18.07;;
20042;SDS011;10182;52.896;6.496;2023-01-05T23:22:04;40.37;;;20.10;;
20042;SDS011;10182;52.896;6.496;2023-01-05T23:27:07;37.70;;;21.90;;
20042;SDS011;10182;52.896;6.496;2023-01-05T23:32:09;34.27;;;21.70;;
20042;SDS011;10182;52.896;6.496;2023-01-05T23:37:11;45.43;;;22.07;;
20042;SDS011;10182;52.896;6.496;2023-01-05T23:42:14;36.33;;;20.33;;
20042;SDS011;10182;52.896;6.496;2023-01-05T23:47:29;38.20;;;21.47;;
20042;SDS011;10182;52.896;6.496;2023-01-05T23:52:31;41.73;;;21.77;;
20042;SDS011;10182;52.896;6.496;2023-01-05T23:57:34;42.33;;;20.10;;
